sensor_id;sensor_type;location;lat;lon;timestamp;P1;durP1;ratioP1;P2;durP2;ratioP2
22843;SDS011;11588;51.178;4.852;2023-07-09T00:00:55;2.90;;;1.52;;
22843;SDS011;11588;51.178;4.852;2023-07-09T00:03:23;4.55;;;2.25;;
22843;SDS011;11588;51.178;4.852;2023-07-09T00:05:49;3.80;;;1.92;;
22843;SDS011;11588;51.178;4.852;2023-07-09T00:08:29;2.45;;;1.80;;
22843;SDS011;11588;51.178;4.852;2023-07-09T00:10:57;2.92;;;1.63;;
22843;SDS011;11588;51.178;4.852;2023-07-09T00:13:25;4.05;;;2.08;;
22843;SDS011;11588;51.178;4.852;2023-07-09T00:15:53;3.53;;;1.98;;
22843;SDS011;11588;51.178;4.852;2023-07-09T00:18:20;2.92;;;1.98;;
22843;SDS011;11588;51.178;4.852;2023-07-09T00:20:46;3.78;;;1.85;;
22843;SDS011;11588;51.178;4.852;2023-07-09T00:23:14;2.80;;;1.90;;
22843;SDS011;11588;51.178;4.852;2023-07-09T00:25:43;5.68;;;2.17;;
22843;SDS011;11588;51.178;4.852;2023-07-09T00:28:12;3.78;;;2.60;;
22843;SDS011;11588;51.178;4.852;2023-07-09T00:30:39;2.58;;;1.77;;
22843;SDS011;11588;51.178;4.852;2023-07-09T00:33:10;4.05;;;2.35;;
22843;SDS011;11588;51.178;4.852;2023-07-09T00:35:41;3.40;;;2.15;;
22843;SDS011;11588;51.178;4.852;2023-07-09T00:43:35;7.18;;;2.80;;
22843;SDS011;11588;51.178;4.852;2023-07-09T00:48:38;3.85;;;2.15;;
22843;SDS011;11588;51.178;4.852;2023-07-09T00:51:08;2.33;;;1.83;;
22843;SDS011;11588;51.178;4.852;2023-07-09T00:53:38;5.38;;;2.63;;
22843;SDS011;11588;51.178;4.852;2023-07-09T00:56:14;2.90;;;1.92;;
22843;SDS011;11588;51.178;4.852;2023-07-09T00:58:42;3.30;;;1.75;;
22843;SDS011;11588;51.178;4.852;2023-07-09T01:01:13;3.10;;;2.28;;
22843;SDS011;11588;51.178;4.852;2023-07-09T01:03:44;5.93;;;2.35;;
22843;SDS011;11588;51.178;4.852;2023-07-09T01:06:15;3.40;;;2.53;;
22843;SDS011;11588;51.178;4.852;2023-07-09T01:08:45;5.85;;;2.38;;
22843;SDS011;11588;51.178;4.852;2023-07-09T01:11:16;2.85;;;2.22;;
22843;SDS011;11588;51.178;4.852;2023-07-09T01:16:29;3.33;;;2.00;;
22843;SDS011;11588;51.178;4.852;2023-07-09T01:18:57;3.42;;;2.10;;
22843;SDS011;11588;51.178;4.852;2023-07-09T01:21:24;5.25;;;2.70;;
22843;SDS011;11588;51.178;4.852;2023-07-09T01:23:50;3.78;;;2.50;;
22843;SDS011;11588;51.178;4.852;2023-07-09T01:26:20;4.63;;;2.30;;
22843;SDS011;11588;51.178;4.852;2023-07-09T01:28:47;3.42;;;2.20;;
22843;SDS011;11588;51.178;4.852;2023-07-09T01:31:15;4.68;;;2.35;;
22843;SDS011;11588;51.178;4.852;2023-07-09T01:33:42;3.55;;;2.33;;
22843;SDS011;11588;51.178;4.852;2023-07-09T01:36:15;4.63;;;2.45;;
22843;SDS011;11588;51.178;4.852;2023-07-09T01:38:41;4.22;;;2.70;;
22843;SDS011;11588;51.178;4.852;2023-07-09T01:41:08;3.95;;;3.03;;
22843;SDS011;11588;51.178;4.852;2023-07-09T01:43:34;4.30;;;2.40;;
22843;SDS011;11588;51.178;4.852;2023-07-09T01:46:01;4.38;;;2.25;;
22843;SDS011;11588;51.178;4.852;2023-07-09T01:48:28;8.30;;;3.20;;
22843;SDS011;11588;51.178;4.852;2023-07-09T01:50:54;5.43;;;3.00;;
22843;SDS011;11588;51.178;4.852;2023-07-09T01:53:22;4.63;;;2.90;;
22843;SDS011;11588;51.178;4.852;2023-07-09T01:55:50;6.05;;;2.92;;
22843;SDS011;11588;51.178;4.852;2023-07-09T01:58:17;6.25;;;2.95;;
22843;SDS011;11588;51.178;4.852;2023-07-09T02:00:44;6.00;;;3.47;;
22843;SDS011;11588;51.178;4.852;2023-07-09T02:03:14;6.03;;;2.88;;
22843;SDS011;11588;51.178;4.852;2023-07-09T02:05:40;6.75;;;3.17;;
22843;SDS011;11588;51.178;4.852;2023-07-09T02:08:07;3.88;;;2.90;;
22843;SDS011;11588;51.178;4.852;2023-07-09T02:10:33;3.85;;;2.70;;
22843;SDS011;11588;51.178;4.852;2023-07-09T02:13:00;6.43;;;3.40;;
22843;SDS011;11588;51.178;4.852;2023-07-09T02:15:27;7.53;;;3.63;;
22843;SDS011;11588;51.178;4.852;2023-07-09T02:17:54;4.85;;;2.40;;
22843;SDS011;11588;51.178;4.852;2023-07-09T02:20:21;5.28;;;2.92;;
22843;SDS011;11588;51.178;4.852;2023-07-09T02:22:49;6.72;;;3.72;;
22843;SDS011;11588;51.178;4.852;2023-07-09T02:25:16;4.50;;;3.05;;
22843;SDS011;11588;51.178;4.852;2023-07-09T02:27:43;4.90;;;2.78;;
22843;SDS011;11588;51.178;4.852;2023-07-09T02:30:09;4.63;;;2.85;;
22843;SDS011;11588;51.178;4.852;2023-07-09T02:32:37;5.05;;;3.22;;
22843;SDS011;11588;51.178;4.852;2023-07-09T02:35:04;4.35;;;2.83;;
22843;SDS011;11588;51.178;4.852;2023-07-09T02:37:30;4.75;;;2.67;;
22843;SDS011;11588;51.178;4.852;2023-07-09T02:39:57;6.70;;;3.05;;
22843;SDS011;11588;51.178;4.852;2023-07-09T02:42:23;3.75;;;2.78;;
22843;SDS011;11588;51.178;4.852;2023-07-09T02:44:51;5.13;;;2.83;;
22843;SDS011;11588;51.178;4.852;2023-07-09T02:47:16;4.70;;;3.17;;
22843;SDS011;11588;51.178;4.852;2023-07-09T02:49:42;3.70;;;2.42;;
22843;SDS011;11588;51.178;4.852;2023-07-09T02:52:07;6.88;;;3.13;;
22843;SDS011;11588;51.178;4.852;2023-07-09T02:54:33;3.33;;;2.67;;
22843;SDS011;11588;51.178;4.852;2023-07-09T02:57:00;5.32;;;2.70;;
22843;SDS011;11588;51.178;4.852;2023-07-09T02:59:26;5.30;;;2.53;;
22843;SDS011;11588;51.178;4.852;2023-07-09T03:01:54;4.70;;;2.80;;
22843;SDS011;11588;51.178;4.852;2023-07-09T03:04:20;6.22;;;2.55;;
22843;SDS011;11588;51.178;4.852;2023-07-09T03:06:47;3.65;;;2.65;;
22843;SDS011;11588;51.178;4.852;2023-07-09T03:09:14;4.43;;;2.63;;
22843;SDS011;11588;51.178;4.852;2023-07-09T03:11:40;5.57;;;2.80;;
22843;SDS011;11588;51.178;4.852;2023-07-09T03:14:07;4.20;;;2.72;;
22843;SDS011;11588;51.178;4.852;2023-07-09T03:16:34;5.03;;;3.40;;
22843;SDS011;11588;51.178;4.852;2023-07-09T03:19:01;4.95;;;2.95;;
22843;SDS011;11588;51.178;4.852;2023-07-09T03:21:29;5.03;;;2.58;;
22843;SDS011;11588;51.178;4.852;2023-07-09T03:23:56;7.97;;;3.00;;
22843;SDS011;11588;51.178;4.852;2023-07-09T03:26:23;3.80;;;2.70;;
22843;SDS011;11588;51.178;4.852;2023-07-09T03:28:51;4.68;;;2.70;;
22843;SDS011;11588;51.178;4.852;2023-07-09T03:31:18;2.95;;;2.45;;
22843;SDS011;11588;51.178;4.852;2023-07-09T03:33:47;5.70;;;2.78;;
22843;SDS011;11588;51.178;4.852;2023-07-09T03:36:14;6.72;;;3.30;;
22843;SDS011;11588;51.178;4.852;2023-07-09T03:38:40;4.15;;;2.65;;
22843;SDS011;11588;51.178;4.852;2023-07-09T03:41:07;5.50;;;2.95;;
22843;SDS011;11588;51.178;4.852;2023-07-09T03:43:33;3.80;;;2.50;;
22843;SDS011;11588;51.178;4.852;2023-07-09T03:46:00;4.97;;;3.00;;
22843;SDS011;11588;51.178;4.852;2023-07-09T03:48:27;4.18;;;2.83;;
22843;SDS011;11588;51.178;4.852;2023-07-09T03:50:53;4.82;;;2.50;;
22843;SDS011;11588;51.178;4.852;2023-07-09T03:53:20;5.22;;;3.30;;
22843;SDS011;11588;51.178;4.852;2023-07-09T03:55:50;5.20;;;2.70;;
22843;SDS011;11588;51.178;4.852;2023-07-09T03:58:19;2.83;;;2.30;;
22843;SDS011;11588;51.178;4.852;2023-07-09T04:00:46;4.15;;;2.67;;
22843;SDS011;11588;51.178;4.852;2023-07-09T04:03:14;2.97;;;2.25;;
22843;SDS011;11588;51.178;4.852;2023-07-09T04:05:41;2.95;;;2.00;;
22843;SDS011;11588;51.178;4.852;2023-07-09T04:08:08;4.50;;;2.78;;
22843;SDS011;11588;51.178;4.852;2023-07-09T04:10:34;4.68;;;2.65;;
22843;SDS011;11588;51.178;4.852;2023-07-09T04:13:01;4.05;;;3.05;;
22843;SDS011;11588;51.178;4.852;2023-07-09T04:15:27;3.70;;;2.45;;
22843;SDS011;11588;51.178;4.852;2023-07-09T04:17:56;3.90;;;2.58;;
22843;SDS011;11588;51.178;4.852;2023-07-09T04:20:21;4.45;;;2.50;;
22843;SDS011;11588;51.178;4.852;2023-07-09T04:22:48;7.03;;;2.97;;
22843;SDS011;11588;51.178;4.852;2023-07-09T04:25:15;4.93;;;2.47;;
22843;SDS011;11588;51.178;4.852;2023-07-09T04:27:42;4.53;;;2.92;;
22843;SDS011;11588;51.178;4.852;2023-07-09T04:30:11;3.13;;;2.42;;
22843;SDS011;11588;51.178;4.852;2023-07-09T04:32:38;3.85;;;2.40;;
22843;SDS011;11588;51.178;4.852;2023-07-09T04:35:04;3.55;;;2.58;;
22843;SDS011;11588;51.178;4.852;2023-07-09T04:37:32;3.30;;;2.90;;
22843;SDS011;11588;51.178;4.852;2023-07-09T04:39:59;4.22;;;2.63;;
22843;SDS011;11588;51.178;4.852;2023-07-09T04:42:26;10.77;;;3.67;;
22843;SDS011;11588;51.178;4.852;2023-07-09T04:44:53;3.20;;;2.33;;
22843;SDS011;11588;51.178;4.852;2023-07-09T04:47:19;4.60;;;2.78;;
22843;SDS011;11588;51.178;4.852;2023-07-09T04:49:46;4.30;;;2.70;;
22843;SDS011;11588;51.178;4.852;2023-07-09T04:52:13;4.10;;;2.72;;
22843;SDS011;11588;51.178;4.852;2023-07-09T04:54:41;6.25;;;3.10;;
22843;SDS011;11588;51.178;4.852;2023-07-09T04:57:13;5.07;;;2.95;;
22843;SDS011;11588;51.178;4.852;2023-07-09T04:59:39;8.57;;;3.35;;
22843;SDS011;11588;51.178;4.852;2023-07-09T05:02:07;7.63;;;2.85;;
22843;SDS011;11588;51.178;4.852;2023-07-09T05:04:34;4.43;;;2.60;;
22843;SDS011;11588;51.178;4.852;2023-07-09T05:07:01;3.60;;;2.90;;
22843;SDS011;11588;51.178;4.852;2023-07-09T05:09:28;6.93;;;2.88;;
22843;SDS011;11588;51.178;4.852;2023-07-09T05:11:54;6.47;;;3.42;;
22843;SDS011;11588;51.178;4.852;2023-07-09T05:14:21;6.38;;;3.03;;
22843;SDS011;11588;51.178;4.852;2023-07-09T05:16:47;5.78;;;3.40;;
22843;SDS011;11588;51.178;4.852;2023-07-09T05:19:15;4.25;;;2.50;;
22843;SDS011;11588;51.178;4.852;2023-07-09T05:21:41;7.72;;;2.80;;
22843;SDS011;11588;51.178;4.852;2023-07-09T05:24:08;4.05;;;2.97;;
22843;SDS011;11588;51.178;4.852;2023-07-09T05:26:34;4.63;;;3.13;;
22843;SDS011;11588;51.178;4.852;2023-07-09T05:29:02;4.10;;;2.50;;
22843;SDS011;11588;51.178;4.852;2023-07-09T05:31:29;5.22;;;2.63;;
22843;SDS011;11588;51.178;4.852;2023-07-09T05:33:55;3.53;;;2.72;;
22843;SDS011;11588;51.178;4.852;2023-07-09T05:36:22;5.32;;;2.75;;
22843;SDS011;11588;51.178;4.852;2023-07-09T05:38:48;5.45;;;2.65;;
22843;SDS011;11588;51.178;4.852;2023-07-09T05:41:16;3.72;;;2.50;;
22843;SDS011;11588;51.178;4.852;2023-07-09T05:43:43;5.55;;;3.22;;
22843;SDS011;11588;51.178;4.852;2023-07-09T05:46:12;6.97;;;3.10;;
22843;SDS011;11588;51.178;4.852;2023-07-09T05:48:38;4.30;;;2.60;;
22843;SDS011;11588;51.178;4.852;2023-07-09T05:51:05;5.20;;;2.80;;
22843;SDS011;11588;51.178;4.852;2023-07-09T05:53:31;4.22;;;2.65;;
22843;SDS011;11588;51.178;4.852;2023-07-09T05:55:59;4.03;;;2.50;;
22843;SDS011;11588;51.178;4.852;2023-07-09T05:58:26;5.35;;;2.70;;
22843;SDS011;11588;51.178;4.852;2023-07-09T06:00:52;4.38;;;2.22;;
22843;SDS011;11588;51.178;4.852;2023-07-09T06:03:21;4.85;;;2.38;;
22843;SDS011;11588;51.178;4.852;2023-07-09T06:05:48;6.15;;;2.88;;
22843;SDS011;11588;51.178;4.852;2023-07-09T06:08:16;4.07;;;2.50;;
22843;SDS011;11588;51.178;4.852;2023-07-09T06:10:54;2.95;;;2.30;;
22843;SDS011;11588;51.178;4.852;2023-07-09T06:13:20;4.38;;;2.83;;
22843;SDS011;11588;51.178;4.852;2023-07-09T06:15:51;3.20;;;2.55;;
22843;SDS011;11588;51.178;4.852;2023-07-09T06:18:19;4.47;;;2.75;;
22843;SDS011;11588;51.178;4.852;2023-07-09T06:20:47;6.05;;;3.47;;
22843;SDS011;11588;51.178;4.852;2023-07-09T06:23:13;4.78;;;2.60;;
22843;SDS011;11588;51.178;4.852;2023-07-09T06:25:40;5.68;;;2.80;;
22843;SDS011;11588;51.178;4.852;2023-07-09T06:28:07;5.13;;;2.97;;
22843;SDS011;11588;51.178;4.852;2023-07-09T06:30:35;5.63;;;2.83;;
22843;SDS011;11588;51.178;4.852;2023-07-09T06:33:02;4.30;;;2.95;;
22843;SDS011;11588;51.178;4.852;2023-07-09T06:35:29;4.75;;;2.53;;
22843;SDS011;11588;51.178;4.852;2023-07-09T06:37:56;6.93;;;2.90;;
22843;SDS011;11588;51.178;4.852;2023-07-09T06:40:22;5.05;;;2.85;;
22843;SDS011;11588;51.178;4.852;2023-07-09T06:42:50;4.80;;;3.03;;
22843;SDS011;11588;51.178;4.852;2023-07-09T06:45:17;6.38;;;2.97;;
22843;SDS011;11588;51.178;4.852;2023-07-09T06:47:44;6.38;;;3.60;;
22843;SDS011;11588;51.178;4.852;2023-07-09T06:50:11;6.20;;;3.40;;
22843;SDS011;11588;51.178;4.852;2023-07-09T06:52:38;5.22;;;3.60;;
22843;SDS011;11588;51.178;4.852;2023-07-09T06:55:05;7.20;;;3.92;;
22843;SDS011;11588;51.178;4.852;2023-07-09T06:57:32;8.02;;;5.05;;
22843;SDS011;11588;51.178;4.852;2023-07-09T06:59:58;8.95;;;6.75;;
22843;SDS011;11588;51.178;4.852;2023-07-09T07:02:25;10.45;;;6.07;;
22843;SDS011;11588;51.178;4.852;2023-07-09T07:04:52;9.77;;;6.85;;
22843;SDS011;11588;51.178;4.852;2023-07-09T07:07:19;10.52;;;5.88;;
22843;SDS011;11588;51.178;4.852;2023-07-09T07:09:46;11.18;;;6.78;;
22843;SDS011;11588;51.178;4.852;2023-07-09T07:12:19;11.85;;;6.95;;
22843;SDS011;11588;51.178;4.852;2023-07-09T07:14:49;15.70;;;9.13;;
22843;SDS011;11588;51.178;4.852;2023-07-09T07:17:16;14.75;;;10.50;;
22843;SDS011;11588;51.178;4.852;2023-07-09T07:19:43;16.38;;;11.15;;
22843;SDS011;11588;51.178;4.852;2023-07-09T07:22:09;17.60;;;12.27;;
22843;SDS011;11588;51.178;4.852;2023-07-09T07:24:36;17.92;;;12.50;;
22843;SDS011;11588;51.178;4.852;2023-07-09T07:27:02;20.83;;;13.70;;
22843;SDS011;11588;51.178;4.852;2023-07-09T07:29:29;21.58;;;14.13;;
22843;SDS011;11588;51.178;4.852;2023-07-09T07:31:55;22.25;;;15.23;;
22843;SDS011;11588;51.178;4.852;2023-07-09T07:34:22;21.95;;;14.13;;
22843;SDS011;11588;51.178;4.852;2023-07-09T07:36:49;18.80;;;13.73;;
22843;SDS011;11588;51.178;4.852;2023-07-09T07:39:15;19.42;;;13.63;;
22843;SDS011;11588;51.178;4.852;2023-07-09T07:41:42;22.25;;;13.10;;
22843;SDS011;11588;51.178;4.852;2023-07-09T07:44:08;20.08;;;12.05;;
22843;SDS011;11588;51.178;4.852;2023-07-09T07:46:37;20.20;;;12.70;;
22843;SDS011;11588;51.178;4.852;2023-07-09T07:49:04;17.13;;;11.73;;
22843;SDS011;11588;51.178;4.852;2023-07-09T07:51:31;15.85;;;11.55;;
22843;SDS011;11588;51.178;4.852;2023-07-09T07:53:57;18.40;;;12.77;;
22843;SDS011;11588;51.178;4.852;2023-07-09T07:56:24;16.80;;;12.35;;
22843;SDS011;11588;51.178;4.852;2023-07-09T07:58:52;18.67;;;11.70;;
22843;SDS011;11588;51.178;4.852;2023-07-09T08:01:18;19.55;;;11.90;;
22843;SDS011;11588;51.178;4.852;2023-07-09T08:03:45;15.30;;;10.35;;
22843;SDS011;11588;51.178;4.852;2023-07-09T08:06:11;14.90;;;9.48;;
22843;SDS011;11588;51.178;4.852;2023-07-09T08:08:38;16.50;;;8.82;;
22843;SDS011;11588;51.178;4.852;2023-07-09T08:11:05;13.50;;;7.72;;
22843;SDS011;11588;51.178;4.852;2023-07-09T08:13:37;12.48;;;7.15;;
22843;SDS011;11588;51.178;4.852;2023-07-09T08:16:04;10.97;;;6.37;;
22843;SDS011;11588;51.178;4.852;2023-07-09T08:18:31;11.02;;;7.07;;
22843;SDS011;11588;51.178;4.852;2023-07-09T08:20:59;13.27;;;6.47;;
22843;SDS011;11588;51.178;4.852;2023-07-09T08:23:28;9.13;;;5.50;;
22843;SDS011;11588;51.178;4.852;2023-07-09T08:25:56;7.68;;;5.45;;
22843;SDS011;11588;51.178;4.852;2023-07-09T08:28:23;10.55;;;6.07;;
22843;SDS011;11588;51.178;4.852;2023-07-09T08:30:52;8.20;;;5.50;;
22843;SDS011;11588;51.178;4.852;2023-07-09T08:33:19;12.70;;;5.75;;
22843;SDS011;11588;51.178;4.852;2023-07-09T08:35:45;8.10;;;4.68;;
22843;SDS011;11588;51.178;4.852;2023-07-09T08:38:12;8.20;;;4.70;;
22843;SDS011;11588;51.178;4.852;2023-07-09T08:40:39;9.02;;;4.78;;
22843;SDS011;11588;51.178;4.852;2023-07-09T08:43:11;9.50;;;5.95;;
22843;SDS011;11588;51.178;4.852;2023-07-09T08:46:02;12.35;;;6.53;;
22843;SDS011;11588;51.178;4.852;2023-07-09T08:48:30;10.80;;;5.78;;
22843;SDS011;11588;51.178;4.852;2023-07-09T08:51:03;9.63;;;7.35;;
22843;SDS011;11588;51.178;4.852;2023-07-09T08:53:35;10.85;;;6.47;;
22843;SDS011;11588;51.178;4.852;2023-07-09T08:56:02;9.85;;;6.45;;
22843;SDS011;11588;51.178;4.852;2023-07-09T08:58:29;11.20;;;6.30;;
22843;SDS011;11588;51.178;4.852;2023-07-09T09:00:56;11.43;;;6.88;;
22843;SDS011;11588;51.178;4.852;2023-07-09T09:03:29;10.70;;;6.47;;
22843;SDS011;11588;51.178;4.852;2023-07-09T09:05:59;9.60;;;6.18;;
22843;SDS011;11588;51.178;4.852;2023-07-09T09:08:33;12.93;;;7.00;;
22843;SDS011;11588;51.178;4.852;2023-07-09T09:13:55;12.80;;;8.55;;
22843;SDS011;11588;51.178;4.852;2023-07-09T09:16:24;13.45;;;8.38;;
22843;SDS011;11588;51.178;4.852;2023-07-09T09:18:52;10.65;;;7.22;;
22843;SDS011;11588;51.178;4.852;2023-07-09T09:21:22;12.05;;;8.18;;
22843;SDS011;11588;51.178;4.852;2023-07-09T09:23:51;9.90;;;6.78;;
22843;SDS011;11588;51.178;4.852;2023-07-09T09:28:55;7.72;;;5.68;;
22843;SDS011;11588;51.178;4.852;2023-07-09T09:31:23;9.52;;;6.55;;
22843;SDS011;11588;51.178;4.852;2023-07-09T09:33:50;9.43;;;6.60;;
22843;SDS011;11588;51.178;4.852;2023-07-09T09:36:20;9.32;;;6.13;;
22843;SDS011;11588;51.178;4.852;2023-07-09T09:38:47;7.20;;;5.85;;
22843;SDS011;11588;51.178;4.852;2023-07-09T09:41:17;7.47;;;5.40;;
22843;SDS011;11588;51.178;4.852;2023-07-09T09:43:45;9.45;;;5.80;;
22843;SDS011;11588;51.178;4.852;2023-07-09T09:46:17;7.20;;;5.78;;
22843;SDS011;11588;51.178;4.852;2023-07-09T09:48:44;7.32;;;5.55;;
22843;SDS011;11588;51.178;4.852;2023-07-09T09:51:11;8.23;;;5.53;;
22843;SDS011;11588;51.178;4.852;2023-07-09T09:53:39;8.00;;;4.68;;
22843;SDS011;11588;51.178;4.852;2023-07-09T09:56:07;7.85;;;4.55;;
22843;SDS011;11588;51.178;4.852;2023-07-09T09:58:39;8.95;;;5.22;;
22843;SDS011;11588;51.178;4.852;2023-07-09T10:03:46;6.85;;;5.55;;
22843;SDS011;11588;51.178;4.852;2023-07-09T10:06:15;6.72;;;4.45;;
22843;SDS011;11588;51.178;4.852;2023-07-09T10:11:18;8.05;;;5.63;;
22843;SDS011;11588;51.178;4.852;2023-07-09T10:13:46;6.97;;;4.57;;
22843;SDS011;11588;51.178;4.852;2023-07-09T10:18:55;6.78;;;4.93;;
22843;SDS011;11588;51.178;4.852;2023-07-09T10:31:46;6.82;;;4.97;;
22843;SDS011;11588;51.178;4.852;2023-07-09T10:34:26;7.63;;;5.47;;
22843;SDS011;11588;51.178;4.852;2023-07-09T10:37:07;6.57;;;5.60;;
22843;SDS011;11588;51.178;4.852;2023-07-09T10:45:09;7.50;;;5.25;;
22843;SDS011;11588;51.178;4.852;2023-07-09T10:47:38;7.65;;;5.07;;
22843;SDS011;11588;51.178;4.852;2023-07-09T10:50:05;6.95;;;4.50;;
22843;SDS011;11588;51.178;4.852;2023-07-09T10:52:37;5.47;;;3.80;;
22843;SDS011;11588;51.178;4.852;2023-07-09T10:55:14;5.32;;;3.28;;
22843;SDS011;11588;51.178;4.852;2023-07-09T11:00:23;5.47;;;2.60;;
22843;SDS011;11588;51.178;4.852;2023-07-09T11:02:57;3.58;;;2.35;;
22843;SDS011;11588;51.178;4.852;2023-07-09T11:05:27;6.63;;;2.50;;
22843;SDS011;11588;51.178;4.852;2023-07-09T11:12:54;7.55;;;2.20;;
22843;SDS011;11588;51.178;4.852;2023-07-09T11:15:25;3.25;;;2.20;;
22843;SDS011;11588;51.178;4.852;2023-07-09T11:17:54;3.63;;;1.30;;
22843;SDS011;11588;51.178;4.852;2023-07-09T11:20:25;2.50;;;1.88;;
22843;SDS011;11588;51.178;4.852;2023-07-09T11:22:54;2.10;;;1.70;;
22843;SDS011;11588;51.178;4.852;2023-07-09T11:28:03;2.90;;;1.83;;
22843;SDS011;11588;51.178;4.852;2023-07-09T11:36:06;2.60;;;1.65;;
22843;SDS011;11588;51.178;4.852;2023-07-09T11:38:39;2.15;;;1.55;;
22843;SDS011;11588;51.178;4.852;2023-07-09T11:43:46;1.83;;;1.20;;
22843;SDS011;11588;51.178;4.852;2023-07-09T11:46:16;2.95;;;1.40;;
22843;SDS011;11588;51.178;4.852;2023-07-09T11:48:47;1.92;;;1.30;;
22843;SDS011;11588;51.178;4.852;2023-07-09T11:51:16;3.17;;;1.35;;
22843;SDS011;11588;51.178;4.852;2023-07-09T11:53:45;3.17;;;1.20;;
22843;SDS011;11588;51.178;4.852;2023-07-09T11:56:14;2.28;;;1.40;;
22843;SDS011;11588;51.178;4.852;2023-07-09T11:58:47;1.92;;;1.40;;
22843;SDS011;11588;51.178;4.852;2023-07-09T12:01:15;2.55;;;1.52;;
22843;SDS011;11588;51.178;4.852;2023-07-09T12:03:43;2.00;;;1.30;;
22843;SDS011;11588;51.178;4.852;2023-07-09T12:08:47;2.45;;;1.42;;
22843;SDS011;11588;51.178;4.852;2023-07-09T12:13:53;2.00;;;1.13;;
22843;SDS011;11588;51.178;4.852;2023-07-09T12:16:23;2.42;;;1.42;;
22843;SDS011;11588;51.178;4.852;2023-07-09T12:18:50;2.65;;;1.33;;
22843;SDS011;11588;51.178;4.852;2023-07-09T12:21:17;3.28;;;1.20;;
22843;SDS011;11588;51.178;4.852;2023-07-09T12:23:44;2.13;;;1.10;;
22843;SDS011;11588;51.178;4.852;2023-07-09T12:26:13;4.57;;;1.67;;
22843;SDS011;11588;51.178;4.852;2023-07-09T12:28:42;2.30;;;1.50;;
22843;SDS011;11588;51.178;4.852;2023-07-09T12:31:12;2.33;;;1.25;;
22843;SDS011;11588;51.178;4.852;2023-07-09T12:36:20;1.40;;;1.15;;
22843;SDS011;11588;51.178;4.852;2023-07-09T12:38:48;1.58;;;1.10;;
22843;SDS011;11588;51.178;4.852;2023-07-09T12:41:24;3.47;;;1.55;;
22843;SDS011;11588;51.178;4.852;2023-07-09T12:43:53;2.95;;;1.05;;
22843;SDS011;11588;51.178;4.852;2023-07-09T12:46:20;3.15;;;1.55;;
22843;SDS011;11588;51.178;4.852;2023-07-09T12:48:48;3.40;;;1.35;;
22843;SDS011;11588;51.178;4.852;2023-07-09T12:51:18;2.78;;;1.60;;
22843;SDS011;11588;51.178;4.852;2023-07-09T12:53:47;3.25;;;1.60;;
22843;SDS011;11588;51.178;4.852;2023-07-09T12:56:15;2.92;;;1.48;;
22843;SDS011;11588;51.178;4.852;2023-07-09T12:58:43;2.55;;;1.50;;
22843;SDS011;11588;51.178;4.852;2023-07-09T13:01:14;2.05;;;1.70;;
22843;SDS011;11588;51.178;4.852;2023-07-09T13:03:41;26.58;;;2.55;;
22843;SDS011;11588;51.178;4.852;2023-07-09T13:08:45;5.93;;;1.80;;
22843;SDS011;11588;51.178;4.852;2023-07-09T13:11:15;2.60;;;1.25;;
22843;SDS011;11588;51.178;4.852;2023-07-09T13:16:22;2.72;;;1.40;;
22843;SDS011;11588;51.178;4.852;2023-07-09T13:18:49;5.63;;;1.60;;
22843;SDS011;11588;51.178;4.852;2023-07-09T13:21:17;3.28;;;1.85;;
22843;SDS011;11588;51.178;4.852;2023-07-09T13:23:45;2.63;;;1.05;;
22843;SDS011;11588;51.178;4.852;2023-07-09T13:26:13;3.05;;;1.73;;
22843;SDS011;11588;51.178;4.852;2023-07-09T13:28:40;5.68;;;2.38;;
22843;SDS011;11588;51.178;4.852;2023-07-09T13:31:09;3.95;;;1.60;;
22843;SDS011;11588;51.178;4.852;2023-07-09T13:33:37;3.70;;;1.45;;
22843;SDS011;11588;51.178;4.852;2023-07-09T13:36:04;4.30;;;1.42;;
22843;SDS011;11588;51.178;4.852;2023-07-09T13:38:31;1.85;;;1.27;;
22843;SDS011;11588;51.178;4.852;2023-07-09T13:40:57;4.65;;;1.50;;
22843;SDS011;11588;51.178;4.852;2023-07-09T13:43:28;5.63;;;1.70;;
22843;SDS011;11588;51.178;4.852;2023-07-09T13:45:55;5.07;;;1.40;;
22843;SDS011;11588;51.178;4.852;2023-07-09T13:48:23;10.55;;;2.17;;
22843;SDS011;11588;51.178;4.852;2023-07-09T13:50:51;2.10;;;1.38;;
22843;SDS011;11588;51.178;4.852;2023-07-09T13:53:22;2.88;;;1.52;;
22843;SDS011;11588;51.178;4.852;2023-07-09T13:55:48;4.47;;;2.55;;
22843;SDS011;11588;51.178;4.852;2023-07-09T13:58:15;6.95;;;1.83;;
22843;SDS011;11588;51.178;4.852;2023-07-09T14:00:42;5.45;;;2.08;;
22843;SDS011;11588;51.178;4.852;2023-07-09T14:05:47;2.78;;;1.83;;
22843;SDS011;11588;51.178;4.852;2023-07-09T14:08:14;5.18;;;1.92;;
22843;SDS011;11588;51.178;4.852;2023-07-09T14:10:40;7.35;;;2.33;;
22843;SDS011;11588;51.178;4.852;2023-07-09T14:13:08;5.20;;;2.22;;
22843;SDS011;11588;51.178;4.852;2023-07-09T14:15:40;5.15;;;2.42;;
22843;SDS011;11588;51.178;4.852;2023-07-09T14:20:39;3.70;;;1.95;;
22843;SDS011;11588;51.178;4.852;2023-07-09T14:23:09;4.32;;;2.53;;
22843;SDS011;11588;51.178;4.852;2023-07-09T14:25:36;6.27;;;2.63;;
22843;SDS011;11588;51.178;4.852;2023-07-09T14:28:07;4.15;;;2.63;;
22843;SDS011;11588;51.178;4.852;2023-07-09T14:30:36;3.58;;;1.63;;
22843;SDS011;11588;51.178;4.852;2023-07-09T14:33:04;3.92;;;2.25;;
22843;SDS011;11588;51.178;4.852;2023-07-09T14:35:31;7.40;;;2.22;;
22843;SDS011;11588;51.178;4.852;2023-07-09T14:37:58;4.43;;;2.13;;
22843;SDS011;11588;51.178;4.852;2023-07-09T14:40:26;5.85;;;2.47;;
22843;SDS011;11588;51.178;4.852;2023-07-09T14:42:53;4.45;;;2.33;;
22843;SDS011;11588;51.178;4.852;2023-07-09T14:45:22;3.70;;;1.73;;
22843;SDS011;11588;51.178;4.852;2023-07-09T14:47:50;4.13;;;2.40;;
22843;SDS011;11588;51.178;4.852;2023-07-09T14:50:17;4.75;;;2.17;;
22843;SDS011;11588;51.178;4.852;2023-07-09T14:52:45;3.58;;;1.85;;
22843;SDS011;11588;51.178;4.852;2023-07-09T14:55:13;4.75;;;2.30;;
22843;SDS011;11588;51.178;4.852;2023-07-09T14:57:40;4.38;;;2.60;;
22843;SDS011;11588;51.178;4.852;2023-07-09T15:00:11;3.90;;;2.67;;
22843;SDS011;11588;51.178;4.852;2023-07-09T15:02:40;6.63;;;3.65;;
22843;SDS011;11588;51.178;4.852;2023-07-09T15:07:44;6.60;;;3.15;;
22843;SDS011;11588;51.178;4.852;2023-07-09T15:10:13;8.38;;;3.40;;
22843;SDS011;11588;51.178;4.852;2023-07-09T15:12:40;5.70;;;2.75;;
22843;SDS011;11588;51.178;4.852;2023-07-09T15:17:45;5.68;;;2.50;;
22843;SDS011;11588;51.178;4.852;2023-07-09T15:20:13;7.65;;;3.58;;
22843;SDS011;11588;51.178;4.852;2023-07-09T15:22:40;6.60;;;3.63;;
22843;SDS011;11588;51.178;4.852;2023-07-09T15:25:10;5.70;;;3.50;;
22843;SDS011;11588;51.178;4.852;2023-07-09T15:27:40;6.50;;;3.42;;
22843;SDS011;11588;51.178;4.852;2023-07-09T15:30:12;7.18;;;4.28;;
22843;SDS011;11588;51.178;4.852;2023-07-09T15:32:40;6.72;;;3.60;;
22843;SDS011;11588;51.178;4.852;2023-07-09T15:35:07;5.95;;;4.28;;
22843;SDS011;11588;51.178;4.852;2023-07-09T15:37:33;8.00;;;4.20;;
22843;SDS011;11588;51.178;4.852;2023-07-09T15:40:00;7.32;;;4.88;;
22843;SDS011;11588;51.178;4.852;2023-07-09T15:42:27;6.07;;;3.67;;
22843;SDS011;11588;51.178;4.852;2023-07-09T15:44:53;7.32;;;4.13;;
22843;SDS011;11588;51.178;4.852;2023-07-09T15:47:28;5.15;;;3.78;;
22843;SDS011;11588;51.178;4.852;2023-07-09T15:49:55;6.07;;;3.45;;
22843;SDS011;11588;51.178;4.852;2023-07-09T15:52:22;5.43;;;3.25;;
22843;SDS011;11588;51.178;4.852;2023-07-09T15:54:49;5.10;;;3.00;;
22843;SDS011;11588;51.178;4.852;2023-07-09T15:57:15;5.00;;;3.13;;
22843;SDS011;11588;51.178;4.852;2023-07-09T15:59:43;7.18;;;2.38;;
22843;SDS011;11588;51.178;4.852;2023-07-09T16:02:12;4.75;;;2.83;;
22843;SDS011;11588;51.178;4.852;2023-07-09T16:04:41;5.88;;;3.17;;
22843;SDS011;11588;51.178;4.852;2023-07-09T16:07:08;4.22;;;2.75;;
22843;SDS011;11588;51.178;4.852;2023-07-09T16:09:35;3.65;;;2.35;;
22843;SDS011;11588;51.178;4.852;2023-07-09T16:12:04;3.15;;;1.98;;